sensor_id;sensor_type;location;lat;lon;timestamp;pressure;altitude;pressure_sealevel;temperature;humidity
64404;BME280;50726;54.912;-8.392;2022-12-18T00:00:49;100350.56;;;23.00;42.49
64404;BME280;50726;54.912;-8.392;2022-12-18T00:03:15;100343.94;;;24.16;41.58
64404;BME280;50726;54.912;-8.392;2022-12-18T00:05:51;100340.03;;;24.41;41.66
64404;BME280;50726;54.912;-8.392;2022-12-18T00:11:11;100342.13;;;24.05;42.14
64404;BME280;50726;54.912;-8.392;2022-12-18T00:13:39;100341.59;;;24.22;41.74
64404;BME280;50726;54.912;-8.392;2022-12-18T00:16:11;100335.19;;;22.70;43.33
64404;BME280;50726;54.912;-8.392;2022-12-18T00:18:37;100330.94;;;22.90;42.68
64404;BME280;50726;54.912;-8.392;2022-12-18T00:21:06;100345.78;;;23.27;43.59
64404;BME280;50726;54.912;-8.392;2022-12-18T00:23:39;100342.00;;;24.49;40.79
64404;BME280;50726;54.912;-8.392;2022-12-18T00:26:33;100334.38;;;24.13;41.63
64404;BME280;50726;54.912;-8.392;2022-12-18T00:29:11;100328.06;;;21.63;44.75
64404;BME280;50726;54.912;-8.392;2022-12-18T00:31:40;100330.94;;;24.53;41.25
64404;BME280;50726;54.912;-8.392;2022-12-18T00:34:11;100308.69;;;25.45;40.67
64404;BME280;50726;54.912;-8.392;2022-12-18T00:36:41;100325.34;;;25.98;39.12
64404;BME280;50726;54.912;-8.392;2022-12-18T00:39:10;100312.50;;;25.42;40.31
64404;BME280;50726;54.912;-8.392;2022-12-18T00:41:37;100313.84;;;23.48;42.37
64404;BME280;50726;54.912;-8.392;2022-12-18T00:44:21;100308.94;;;24.71;40.56
64404;BME280;50726;54.912;-8.392;2022-12-18T00:46:50;100309.22;;;24.78;40.66
64404;BME280;50726;54.912;-8.392;2022-12-18T00:49:21;100311.19;;;24.02;41.19
64404;BME280;50726;54.912;-8.392;2022-12-18T00:51:48;100292.97;;;24.07;41.85
64404;BME280;50726;54.912;-8.392;2022-12-18T00:54:24;100303.81;;;24.99;41.12
64404;BME280;50726;54.912;-8.392;2022-12-18T00:56:55;100312.97;;;24.65;40.31
64404;BME280;50726;54.912;-8.392;2022-12-18T00:59:42;100297.78;;;24.66;41.06
64404;BME280;50726;54.912;-8.392;2022-12-18T01:02:09;100296.66;;;24.37;41.67
64404;BME280;50726;54.912;-8.392;2022-12-18T01:04:39;100298.41;;;24.48;41.55
64404;BME280;50726;54.912;-8.392;2022-12-18T01:07:05;100299.59;;;23.38;41.66
64404;BME280;50726;54.912;-8.392;2022-12-18T01:09:32;100302.50;;;25.44;39.89
64404;BME280;50726;54.912;-8.392;2022-12-18T01:11:58;100293.19;;;24.16;40.95
64404;BME280;50726;54.912;-8.392;2022-12-18T01:14:32;100306.31;;;24.81;40.01
64404;BME280;50726;54.912;-8.392;2022-12-18T01:16:59;100298.50;;;24.37;41.73
64404;BME280;50726;54.912;-8.392;2022-12-18T01:19:29;100298.63;;;24.66;40.59
64404;BME280;50726;54.912;-8.392;2022-12-18T01:21:55;100291.66;;;23.80;41.08
64404;BME280;50726;54.912;-8.392;2022-12-18T01:24:21;100287.31;;;22.68;42.51
64404;BME280;50726;54.912;-8.392;2022-12-18T01:26:47;100292.44;;;23.15;42.52
64404;BME280;50726;54.912;-8.392;2022-12-18T01:29:14;100289.47;;;22.97;42.57
64404;BME280;50726;54.912;-8.392;2022-12-18T01:31:40;100277.25;;;22.83;42.33
64404;BME280;50726;54.912;-8.392;2022-12-18T01:34:05;100290.91;;;24.73;40.49
64404;BME280;50726;54.912;-8.392;2022-12-18T01:36:33;100282.69;;;24.86;40.04
64404;BME280;50726;54.912;-8.392;2022-12-18T01:39:18;100284.59;;;25.25;39.76
64404;BME280;50726;54.912;-8.392;2022-12-18T01:41:45;100297.44;;;24.49;40.51
64404;BME280;50726;54.912;-8.392;2022-12-18T01:45:01;100288.63;;;23.73;40.75
64404;BME280;50726;54.912;-8.392;2022-12-18T01:47:54;100288.38;;;24.40;39.57
64404;BME280;50726;54.912;-8.392;2022-12-18T01:50:32;100266.97;;;25.13;39.72
64404;BME280;50726;54.912;-8.392;2022-12-18T01:53:14;100269.78;;;25.90;38.12
64404;BME280;50726;54.912;-8.392;2022-12-18T01:55:53;100272.06;;;26.80;36.23
64404;BME280;50726;54.912;-8.392;2022-12-18T01:58:24;100244.44;;;26.42;36.95
64404;BME280;50726;54.912;-8.392;2022-12-18T02:00:54;100248.97;;;27.16;36.23
64404;BME280;50726;54.912;-8.392;2022-12-18T02:03:20;100228.59;;;27.86;36.24
64404;BME280;50726;54.912;-8.392;2022-12-18T02:05:52;100211.03;;;28.78;33.42
64404;BME280;50726;54.912;-8.392;2022-12-18T02:14:23;100202.22;;;29.27;32.98
64404;BME280;50726;54.912;-8.392;2022-12-18T02:17:21;100192.88;;;28.80;32.94
64404;BME280;50726;54.912;-8.392;2022-12-18T02:20:06;100200.09;;;27.12;35.49
64404;BME280;50726;54.912;-8.392;2022-12-18T02:26:02;100184.16;;;25.51;37.06
64404;BME280;50726;54.912;-8.392;2022-12-18T02:28:37;100182.25;;;24.72;38.62
64404;BME280;50726;54.912;-8.392;2022-12-18T02:31:10;100168.16;;;23.45;41.25
64404;BME280;50726;54.912;-8.392;2022-12-18T02:33:37;100158.94;;;25.14;39.33
64404;BME280;50726;54.912;-8.392;2022-12-18T02:36:05;100135.09;;;23.79;40.70
64404;BME280;50726;54.912;-8.392;2022-12-18T02:38:33;100144.84;;;25.02;38.84
64404;BME280;50726;54.912;-8.392;2022-12-18T02:41:00;100127.13;;;24.20;39.34
64404;BME280;50726;54.912;-8.392;2022-12-18T02:43:29;100125.81;;;25.54;38.22
64404;BME280;50726;54.912;-8.392;2022-12-18T02:46:00;100115.53;;;25.30;39.09
64404;BME280;50726;54.912;-8.392;2022-12-18T02:48:46;100107.53;;;24.61;39.75
64404;BME280;50726;54.912;-8.392;2022-12-18T02:51:25;100109.09;;;24.83;39.28
64404;BME280;50726;54.912;-8.392;2022-12-18T02:54:23;100123.25;;;25.53;39.41
64404;BME280;50726;54.912;-8.392;2022-12-18T02:56:55;100110.00;;;24.43;40.40
64404;BME280;50726;54.912;-8.392;2022-12-18T02:59:41;100097.06;;;24.28;40.77
64404;BME280;50726;54.912;-8.392;2022-12-18T03:02:29;100111.25;;;24.29;40.20
64404;BME280;50726;54.912;-8.392;2022-12-18T03:05:41;100094.88;;;25.12;39.60
64404;BME280;50726;54.912;-8.392;2022-12-18T03:08:21;100087.25;;;24.38;40.95
64404;BME280;50726;54.912;-8.392;2022-12-18T03:11:06;100095.72;;;25.23;39.55
64404;BME280;50726;54.912;-8.392;2022-12-18T03:16:19;100053.41;;;23.67;41.86
64404;BME280;50726;54.912;-8.392;2022-12-18T03:18:58;100061.31;;;24.09;40.30
64404;BME280;50726;54.912;-8.392;2022-12-18T03:21:29;100072.97;;;23.87;41.47
64404;BME280;50726;54.912;-8.392;2022-12-18T03:23:58;100059.28;;;24.82;39.41
64404;BME280;50726;54.912;-8.392;2022-12-18T03:26:26;100060.25;;;24.71;40.08
64404;BME280;50726;54.912;-8.392;2022-12-18T03:29:03;100076.91;;;25.42;39.38
64404;BME280;50726;54.912;-8.392;2022-12-18T03:31:34;100062.47;;;24.46;40.73
64404;BME280;50726;54.912;-8.392;2022-12-18T03:34:08;100069.78;;;24.54;39.89
64404;BME280;50726;54.912;-8.392;2022-12-18T03:36:34;100066.22;;;25.42;39.37
64404;BME280;50726;54.912;-8.392;2022-12-18T03:39:00;100040.19;;;24.16;40.66
64404;BME280;50726;54.912;-8.392;2022-12-18T03:41:40;100045.28;;;24.09;40.88
64404;BME280;50726;54.912;-8.392;2022-12-18T03:44:21;100048.31;;;25.43;39.72
64404;BME280;50726;54.912;-8.392;2022-12-18T03:54:45;100023.53;;;23.93;41.63
64404;BME280;50726;54.912;-8.392;2022-12-18T03:57:19;100010.28;;;24.82;40.09
64404;BME280;50726;54.912;-8.392;2022-12-18T03:59:49;100011.84;;;24.64;41.13
64404;BME280;50726;54.912;-8.392;2022-12-18T04:02:18;100006.50;;;24.54;41.38
64404;BME280;50726;54.912;-8.392;2022-12-18T04:04:47;100004.47;;;26.83;38.39
64404;BME280;50726;54.912;-8.392;2022-12-18T04:07:16;100001.22;;;26.97;38.01
64404;BME280;50726;54.912;-8.392;2022-12-18T04:09:43;100013.41;;;28.22;35.81
64404;BME280;50726;54.912;-8.392;2022-12-18T04:17:11;99989.78;;;25.68;39.36
64404;BME280;50726;54.912;-8.392;2022-12-18T04:19:37;99979.13;;;26.59;37.45
64404;BME280;50726;54.912;-8.392;2022-12-18T04:22:03;99995.13;;;25.30;39.04
64404;BME280;50726;54.912;-8.392;2022-12-18T04:24:29;99993.34;;;26.77;37.58
64404;BME280;50726;54.912;-8.392;2022-12-18T04:26:54;99974.31;;;26.89;37.03
64404;BME280;50726;54.912;-8.392;2022-12-18T04:29:20;99976.09;;;25.71;38.37
64404;BME280;50726;54.912;-8.392;2022-12-18T04:31:46;99983.56;;;24.32;39.97
64404;BME280;50726;54.912;-8.392;2022-12-18T04:34:12;99958.66;;;26.31;38.16
64404;BME280;50726;54.912;-8.392;2022-12-18T04:36:37;99951.63;;;26.20;38.27
64404;BME280;50726;54.912;-8.392;2022-12-18T04:39:06;99964.00;;;24.61;40.04
64404;BME280;50726;54.912;-8.392;2022-12-18T04:41:32;99949.63;;;24.82;40.13
64404;BME280;50726;54.912;-8.392;2022-12-18T04:43:57;99954.44;;;25.82;38.86
64404;BME280;50726;54.912;-8.392;2022-12-18T04:46:23;99950.44;;;23.12;42.23
64404;BME280;50726;54.912;-8.392;2022-12-18T04:48:52;99938.63;;;23.86;41.85
64404;BME280;50726;54.912;-8.392;2022-12-18T04:51:17;99925.44;;;24.84;40.20
64404;BME280;50726;54.912;-8.392;2022-12-18T04:53:43;99931.94;;;24.42;39.99
64404;BME280;50726;54.912;-8.392;2022-12-18T04:56:14;99919.06;;;24.94;41.19
64404;BME280;50726;54.912;-8.392;2022-12-18T04:58:42;99902.19;;;23.15;42.86
64404;BME280;50726;54.912;-8.392;2022-12-18T05:01:09;99890.25;;;23.19;42.83
64404;BME280;50726;54.912;-8.392;2022-12-18T05:03:35;99878.31;;;23.13;42.78
64404;BME280;50726;54.912;-8.392;2022-12-18T05:06:02;99873.56;;;23.27;43.26
64404;BME280;50726;54.912;-8.392;2022-12-18T05:08:28;99858.22;;;25.25;40.20
64404;BME280;50726;54.912;-8.392;2022-12-18T05:11:03;99834.63;;;24.34;41.29
64404;BME280;50726;54.912;-8.392;2022-12-18T05:13:29;99819.97;;;24.48;40.88
64404;BME280;50726;54.912;-8.392;2022-12-18T05:15:55;99850.88;;;22.49;43.76
64404;BME280;50726;54.912;-8.392;2022-12-18T05:18:22;99832.63;;;22.65;44.72
64404;BME280;50726;54.912;-8.392;2022-12-18T05:20:50;99819.28;;;24.26;42.44
64404;BME280;50726;54.912;-8.392;2022-12-18T05:23:16;99812.69;;;24.31;41.93
64404;BME280;50726;54.912;-8.392;2022-12-18T05:25:42;99805.81;;;22.98;42.82
64404;BME280;50726;54.912;-8.392;2022-12-18T05:28:08;99833.38;;;24.86;41.16
64404;BME280;50726;54.912;-8.392;2022-12-18T05:30:34;99795.69;;;22.92;44.13
64404;BME280;50726;54.912;-8.392;2022-12-18T05:33:00;99787.38;;;24.25;41.57
64404;BME280;50726;54.912;-8.392;2022-12-18T05:35:25;99798.91;;;22.12;44.91
64404;BME280;50726;54.912;-8.392;2022-12-18T05:37:51;99791.34;;;24.11;41.94
64404;BME280;50726;54.912;-8.392;2022-12-18T05:40:17;99789.38;;;23.93;41.50
64404;BME280;50726;54.912;-8.392;2022-12-18T05:42:43;99768.31;;;23.60;41.81
64404;BME280;50726;54.912;-8.392;2022-12-18T05:45:09;99774.22;;;23.64;42.73
64404;BME280;50726;54.912;-8.392;2022-12-18T05:47:35;99787.16;;;24.08;41.81
64404;BME280;50726;54.912;-8.392;2022-12-18T05:50:00;99792.47;;;23.79;42.12
64404;BME280;50726;54.912;-8.392;2022-12-18T05:52:26;99789.38;;;23.64;42.20
64404;BME280;50726;54.912;-8.392;2022-12-18T05:54:52;99765.38;;;24.51;41.27
64404;BME280;50726;54.912;-8.392;2022-12-18T05:57:17;99758.31;;;23.43;42.17
64404;BME280;50726;54.912;-8.392;2022-12-18T05:59:43;99741.41;;;24.59;40.64
64404;BME280;50726;54.912;-8.392;2022-12-18T06:02:09;99743.72;;;24.44;40.51
64404;BME280;50726;54.912;-8.392;2022-12-18T06:04:35;99732.88;;;23.98;40.45
64404;BME280;50726;54.912;-8.392;2022-12-18T06:07:03;99722.44;;;25.09;40.28
64404;BME280;50726;54.912;-8.392;2022-12-18T06:09:29;99707.22;;;24.25;40.99
64404;BME280;50726;54.912;-8.392;2022-12-18T06:11:56;99724.63;;;22.71;43.11
64404;BME280;50726;54.912;-8.392;2022-12-18T06:14:21;99694.97;;;22.23;42.83
64404;BME280;50726;54.912;-8.392;2022-12-18T06:16:47;99700.72;;;23.30;42.61
64404;BME280;50726;54.912;-8.392;2022-12-18T06:19:16;99694.63;;;21.85;44.68
64404;BME280;50726;54.912;-8.392;2022-12-18T06:21:45;99692.19;;;23.66;41.72
64404;BME280;50726;54.912;-8.392;2022-12-18T06:24:10;99687.38;;;22.50;43.70
64404;BME280;50726;54.912;-8.392;2022-12-18T06:26:40;99654.66;;;22.38;43.40
64404;BME280;50726;54.912;-8.392;2022-12-18T06:29:06;99662.50;;;21.56;44.33
64404;BME280;50726;54.912;-8.392;2022-12-18T06:31:32;99662.81;;;22.97;43.12
64404;BME280;50726;54.912;-8.392;2022-12-18T06:33:58;99670.25;;;23.03;42.42
64404;BME280;50726;54.912;-8.392;2022-12-18T06:36:23;99646.06;;;22.56;42.52
64404;BME280;50726;54.912;-8.392;2022-12-18T06:38:49;99650.09;;;22.19;43.49
64404;BME280;50726;54.912;-8.392;2022-12-18T06:41:20;99651.28;;;23.66;42.26
64404;BME280;50726;54.912;-8.392;2022-12-18T06:43:46;99657.28;;;23.87;41.17
64404;BME280;50726;54.912;-8.392;2022-12-18T06:46:12;99650.56;;;22.24;43.14
64404;BME280;50726;54.912;-8.392;2022-12-18T06:48:38;99633.06;;;22.82;42.36
64404;BME280;50726;54.912;-8.392;2022-12-18T06:51:04;99623.16;;;23.81;41.40
64404;BME280;50726;54.912;-8.392;2022-12-18T06:53:31;99618.31;;;23.47;41.26
64404;BME280;50726;54.912;-8.392;2022-12-18T06:56:06;99602.59;;;22.75;42.44
64404;BME280;50726;54.912;-8.392;2022-12-18T06:58:33;99592.09;;;24.18;40.64
64404;BME280;50726;54.912;-8.392;2022-12-18T07:01:03;99593.78;;;23.81;41.27
64404;BME280;50726;54.912;-8.392;2022-12-18T07:03:30;99590.66;;;22.18;42.52
64404;BME280;50726;54.912;-8.392;2022-12-18T07:05:59;99593.34;;;23.09;42.62
64404;BME280;50726;54.912;-8.392;2022-12-18T07:08:26;99574.13;;;24.38;40.81
64404;BME280;50726;54.912;-8.392;2022-12-18T07:10:52;99558.78;;;22.48;42.76
64404;BME280;50726;54.912;-8.392;2022-12-18T07:13:23;99575.34;;;23.20;42.13
64404;BME280;50726;54.912;-8.392;2022-12-18T07:15:48;99564.22;;;25.22;39.43
64404;BME280;50726;54.912;-8.392;2022-12-18T07:18:14;99550.84;;;23.65;40.91
64404;BME280;50726;54.912;-8.392;2022-12-18T07:20:40;99544.72;;;23.44;41.91
64404;BME280;50726;54.912;-8.392;2022-12-18T07:23:07;99538.84;;;24.07;41.83
64404;BME280;50726;54.912;-8.392;2022-12-18T07:25:37;99535.34;;;24.34;41.39
64404;BME280;50726;54.912;-8.392;2022-12-18T07:28:03;99532.16;;;23.65;41.92
64404;BME280;50726;54.912;-8.392;2022-12-18T07:30:29;99520.06;;;23.13;43.60
64404;BME280;50726;54.912;-8.392;2022-12-18T07:32:58;99536.88;;;24.55;41.93
64404;BME280;50726;54.912;-8.392;2022-12-18T07:35:24;99515.81;;;22.11;44.20
64404;BME280;50726;54.912;-8.392;2022-12-18T07:37:51;99510.88;;;22.07;45.96
64404;BME280;50726;54.912;-8.392;2022-12-18T07:40:17;99483.44;;;23.15;43.38
64404;BME280;50726;54.912;-8.392;2022-12-18T07:42:45;99491.50;;;21.54;46.84
64404;BME280;50726;54.912;-8.392;2022-12-18T07:45:11;99481.53;;;22.67;74.16
64404;BME280;50726;54.912;-8.392;2022-12-18T07:47:40;99479.63;;;23.93;48.97
64404;BME280;50726;54.912;-8.392;2022-12-18T07:50:07;99474.38;;;24.02;46.64
64404;BME280;50726;54.912;-8.392;2022-12-18T07:52:33;99453.91;;;22.78;47.26
64404;BME280;50726;54.912;-8.392;2022-12-18T07:55:00;99414.88;;;22.87;48.26
64404;BME280;50726;54.912;-8.392;2022-12-18T07:57:26;99421.38;;;22.55;47.61
64404;BME280;50726;54.912;-8.392;2022-12-18T07:59:56;99416.34;;;23.10;47.33
64404;BME280;50726;54.912;-8.392;2022-12-18T08:02:23;99420.03;;;23.37;48.19
64404;BME280;50726;54.912;-8.392;2022-12-18T08:04:57;99417.31;;;22.61;49.03
64404;BME280;50726;54.912;-8.392;2022-12-18T08:07:23;99403.44;;;23.43;47.38
64404;BME280;50726;54.912;-8.392;2022-12-18T08:09:51;99387.84;;;22.72;48.81
64404;BME280;50726;54.912;-8.392;2022-12-18T08:12:28;99403.44;;;23.43;47.35
64404;BME280;50726;54.912;-8.392;2022-12-18T08:14:56;99392.97;;;22.84;48.81
64404;BME280;50726;54.912;-8.392;2022-12-18T08:17:23;99390.31;;;23.22;48.68
64404;BME280;50726;54.912;-8.392;2022-12-18T08:19:53;99399.25;;;23.02;47.91
64404;BME280;50726;54.912;-8.392;2022-12-18T08:22:21;99389.16;;;23.34;48.39
64404;BME280;50726;54.912;-8.392;2022-12-18T08:24:50;99367.50;;;22.51;48.98
64404;BME280;50726;54.912;-8.392;2022-12-18T08:27:19;99366.16;;;22.95;49.78
64404;BME280;50726;54.912;-8.392;2022-12-18T08:29:47;99364.72;;;23.67;48.32
64404;BME280;50726;54.912;-8.392;2022-12-18T08:32:21;99359.78;;;24.08;46.77
64404;BME280;50726;54.912;-8.392;2022-12-18T08:34:48;99357.31;;;22.07;50.78
64404;BME280;50726;54.912;-8.392;2022-12-18T08:37:14;99333.81;;;22.70;48.88
64404;BME280;50726;54.912;-8.392;2022-12-18T08:39:41;99338.22;;;23.27;49.26
64404;BME280;50726;54.912;-8.392;2022-12-18T08:42:06;99331.97;;;22.80;49.05
64404;BME280;50726;54.912;-8.392;2022-12-18T08:44:51;99315.59;;;23.03;49.39
64404;BME280;50726;54.912;-8.392;2022-12-18T08:47:17;99319.19;;;22.84;49.45
64404;BME280;50726;54.912;-8.392;2022-12-18T08:49:42;99311.50;;;22.81;48.89
64404;BME280;50726;54.912;-8.392;2022-12-18T08:52:08;99315.81;;;24.21;47.11
64404;BME280;50726;54.912;-8.392;2022-12-18T08:54:35;99310.41;;;24.12;47.60
64404;BME280;50726;54.912;-8.392;2022-12-18T08:57:01;99294.75;;;22.89;49.00
64404;BME280;50726;54.912;-8.392;2022-12-18T08:59:33;99283.22;;;25.90;45.14
64404;BME280;50726;54.912;-8.392;2022-12-18T09:01:59;99303.44;;;23.47;47.71
64404;BME280;50726;54.912;-8.392;2022-12-18T09:04:25;99282.53;;;22.96;49.20
64404;BME280;50726;54.912;-8.392;2022-12-18T09:06:50;99285.78;;;22.90;49.56
64404;BME280;50726;54.912;-8.392;2022-12-18T09:09:17;99266.34;;;23.26;50.44
64404;BME280;50726;54.912;-8.392;2022-12-18T09:11:45;99260.09;;;24.26;49.17
64404;BME280;50726;54.912;-8.392;2022-12-18T09:14:14;99259.69;;;23.76;48.55
64404;BME280;50726;54.912;-8.392;2022-12-18T09:16:59;99269.28;;;25.44;45.88
64404;BME280;50726;54.912;-8.392;2022-12-18T09:19:31;99235.22;;;25.03;46.93
64404;BME280;50726;54.912;-8.392;2022-12-18T09:22:02;99233.22;;;23.65;48.57
64404;BME280;50726;54.912;-8.392;2022-12-18T09:24:33;99233.25;;;24.36;47.31
64404;BME280;50726;54.912;-8.392;2022-12-18T09:26:59;99221.34;;;23.59;48.28
64404;BME280;50726;54.912;-8.392;2022-12-18T09:29:36;99224.56;;;24.69;47.58
64404;BME280;50726;54.912;-8.392;2022-12-18T09:32:03;99221.72;;;24.35;47.64
64404;BME280;50726;54.912;-8.392;2022-12-18T09:34:30;99198.47;;;23.20;50.41
64404;BME280;50726;54.912;-8.392;2022-12-18T09:37:02;99203.63;;;23.76;49.89
64404;BME280;50726;54.912;-8.392;2022-12-18T09:39:36;99207.31;;;25.06;46.94
64404;BME280;50726;54.912;-8.392;2022-12-18T09:42:03;99181.41;;;24.20;47.27
64404;BME280;50726;54.912;-8.392;2022-12-18T09:44:39;99203.97;;;25.04;46.32
64404;BME280;50726;54.912;-8.392;2022-12-18T09:47:33;99197.78;;;24.60;45.87
64404;BME280;50726;54.912;-8.392;2022-12-18T09:50:22;99196.25;;;23.70;48.47
64404;BME280;50726;54.912;-8.392;2022-12-18T09:52:58;99183.78;;;25.26;46.41
64404;BME280;50726;54.912;-8.392;2022-12-18T09:55:43;99181.75;;;23.54;48.83
64404;BME280;50726;54.912;-8.392;2022-12-18T09:58:23;99182.47;;;23.56;48.24
64404;BME280;50726;54.912;-8.392;2022-12-18T10:00:55;99169.50;;;24.49;47.12
64404;BME280;50726;54.912;-8.392;2022-12-18T10:03:22;99167.06;;;23.32;48.29
64404;BME280;50726;54.912;-8.392;2022-12-18T10:06:01;99173.00;;;24.42;46.59
64404;BME280;50726;54.912;-8.392;2022-12-18T10:11:34;99187.47;;;24.04;46.96
64404;BME280;50726;54.912;-8.392;2022-12-18T10:14:33;99157.34;;;25.06;44.58
64404;BME280;50726;54.912;-8.392;2022-12-18T10:25:34;99165.19;;;25.00;45.14
64404;BME280;50726;54.912;-8.392;2022-12-18T10:28:16;99153.50;;;25.42;44.93
64404;BME280;50726;54.912;-8.392;2022-12-18T10:30:43;99131.53;;;24.29;45.40
64404;BME280;50726;54.912;-8.392;2022-12-18T10:33:21;99138.09;;;24.43;45.60
64404;BME280;50726;54.912;-8.392;2022-12-18T10:35:51;99122.22;;;24.07;46.13
64404;BME280;50726;54.912;-8.392;2022-12-18T10:40:55;99119.03;;;25.47;44.26
64404;BME280;50726;54.912;-8.392;2022-12-18T10:43:27;99108.69;;;25.36;45.45
64404;BME280;50726;54.912;-8.392;2022-12-18T10:48:27;99093.75;;;24.16;47.36
64404;BME280;50726;54.912;-8.392;2022-12-18T10:50:54;99077.78;;;23.71;46.73
64404;BME280;50726;54.912;-8.392;2022-12-18T10:53:23;99076.13;;;23.25;47.72
64404;BME280;50726;54.912;-8.392;2022-12-18T10:55:53;99078.09;;;24.89;46.31
64404;BME280;50726;54.912;-8.392;2022-12-18T10:58:27;99057.34;;;25.16;45.29
64404;BME280;50726;54.912;-8.392;2022-12-18T11:01:11;99058.03;;;24.17;46.54
64404;BME280;50726;54.912;-8.392;2022-12-18T11:03:45;99061.00;;;25.40;45.80
64404;BME280;50726;54.912;-8.392;2022-12-18T11:06:14;99067.09;;;24.32;46.62
64404;BME280;50726;54.912;-8.392;2022-12-18T11:08:56;99033.13;;;25.01;46.55
64404;BME280;50726;54.912;-8.392;2022-12-18T11:11:23;99026.09;;;25.00;46.36
64404;BME280;50726;54.912;-8.392;2022-12-18T11:14:02;99003.38;;;24.79;46.05
64404;BME280;50726;54.912;-8.392;2022-12-18T11:16:33;98980.66;;;24.91;46.80
64404;BME280;50726;54.912;-8.392;2022-12-18T11:19:37;98985.22;;;25.64;45.44
64404;BME280;50726;54.912;-8.392;2022-12-18T11:22:24;98974.94;;;24.78;47.01
64404;BME280;50726;54.912;-8.392;2022-12-18T11:25:05;98963.91;;;24.64;46.85
64404;BME280;50726;54.912;-8.392;2022-12-18T11:27:33;98939.88;;;24.81;46.89
64404;BME280;50726;54.912;-8.392;2022-12-18T11:30:21;98944.41;;;24.89;46.25
64404;BME280;50726;54.912;-8.392;2022-12-18T11:37:57;98941.84;;;24.37;47.60
64404;BME280;50726;54.912;-8.392;2022-12-18T11:40:36;98924.78;;;25.22;47.51
64404;BME280;50726;54.912;-8.392;2022-12-18T11:43:07;98930.69;;;25.48;46.91
64404;BME280;50726;54.912;-8.392;2022-12-18T11:45:54;98915.53;;;26.74;43.53
64404;BME280;50726;54.912;-8.392;2022-12-18T11:49:01;98924.66;;;25.95;45.25
64404;BME280;50726;54.912;-8.392;2022-12-18T11:51:36;98900.63;;;25.78;45.85
64404;BME280;50726;54.912;-8.392;2022-12-18T11:54:16;98913.69;;;26.90;44.15
64404;BME280;50726;54.912;-8.392;2022-12-18T11:56:53;98894.41;;;24.64;47.75
64404;BME280;50726;54.912;-8.392;2022-12-18T11:59:46;98893.63;;;26.00;45.89
64404;BME280;50726;54.912;-8.392;2022-12-18T12:05:27;98857.97;;;25.77;44.18
64404;BME280;50726;54.912;-8.392;2022-12-18T12:14:12;98885.88;;;27.21;44.29
64404;BME280;50726;54.912;-8.392;2022-12-18T12:16:53;98876.09;;;27.28;43.61
64404;BME280;50726;54.912;-8.392;2022-12-18T12:20:07;98874.59;;;26.19;45.75
64404;BME280;50726;54.912;-8.392;2022-12-18T12:25:44;98846.31;;;27.75;43.45
64404;BME280;50726;54.912;-8.392;2022-12-18T12:31:19;98842.28;;;26.59;46.19
64404;BME280;50726;54.912;-8.392;2022-12-18T12:39:38;98812.50;;;26.53;45.71
64404;BME280;50726;54.912;-8.392;2022-12-18T12:42:42;98791.88;;;26.16;46.36
64404;BME280;50726;54.912;-8.392;2022-12-18T12:53:45;98777.19;;;27.47;44.76
64404;BME280;50726;54.912;-8.392;2022-12-18T12:56:15;98773.97;;;26.16;46.56
64404;BME280;50726;54.912;-8.392;2022-12-18T12:58:52;98786.75;;;27.93;44.48
64404;BME280;50726;54.912;-8.392;2022-12-18T13:13:03;98766.44;;;28.34;43.13
64404;BME280;50726;54.912;-8.392;2022-12-18T13:15:42;98753.78;;;28.28;43.42
64404;BME280;50726;54.912;-8.392;2022-12-18T13:18:22;98755.84;;;27.02;45.72
64404;BME280;50726;54.912;-8.392;2022-12-18T13:21:29;98762.91;;;27.83;43.74
64404;BME280;50726;54.912;-8.392;2022-12-18T13:24:27;98775.06;;;28.93;42.50
64404;BME280;50726;54.912;-8.392;2022-12-18T13:26:55;98765.75;;;27.38;43.98
64404;BME280;50726;54.912;-8.392;2022-12-18T13:29:55;98778.22;;;28.11;43.30
64404;BME280;50726;54.912;-8.392;2022-12-18T13:32:32;98742.06;;;27.64;44.58
64404;BME280;50726;54.912;-8.392;2022-12-18T13:38:02;98748.09;;;27.94;45.08
64404;BME280;50726;54.912;-8.392;2022-12-18T13:40:53;98765.25;;;26.83;46.26
64404;BME280;50726;54.912;-8.392;2022-12-18T13:43:32;98739.09;;;27.80;44.07
64404;BME280;50726;54.912;-8.392;2022-12-18T13:46:24;98729.59;;;28.28;43.43
64404;BME280;50726;54.912;-8.392;2022-12-18T13:51:48;98690.38;;;28.12;45.06
64404;BME280;50726;54.912;-8.392;2022-12-18T13:54:37;98715.00;;;28.51;44.22
64404;BME280;50726;54.912;-8.392;2022-12-18T13:57:29;98688.28;;;28.07;43.54
64404;BME280;50726;54.912;-8.392;2022-12-18T14:00:29;98700.22;;;28.33;45.12
64404;BME280;50726;54.912;-8.392;2022-12-18T14:03:15;98697.28;;;27.49;45.51
64404;BME280;50726;54.912;-8.392;2022-12-18T14:08:19;98661.38;;;27.06;46.77
64404;BME280;50726;54.912;-8.392;2022-12-18T14:10:57;98670.13;;;28.93;44.39
64404;BME280;50726;54.912;-8.392;2022-12-18T14:13:45;98664.06;;;27.72;46.64
64404;BME280;50726;54.912;-8.392;2022-12-18T14:16:26;98642.88;;;29.24;44.05
64404;BME280;50726;54.912;-8.392;2022-12-18T14:19:15;98639.28;;;28.40;44.18
64404;BME280;50726;54.912;-8.392;2022-12-18T14:21:47;98654.69;;;29.23;43.39
64404;BME280;50726;54.912;-8.392;2022-12-18T14:24:18;98648.31;;;30.50;42.47
64404;BME280;50726;54.912;-8.392;2022-12-18T14:26:49;98634.56;;;29.05;43.44
64404;BME280;50726;54.912;-8.392;2022-12-18T14:29:26;98638.34;;;29.71;43.25
64404;BME280;50726;54.912;-8.392;2022-12-18T14:34:35;98608.00;;;30.23;41.34
64404;BME280;50726;54.912;-8.392;2022-12-18T14:37:03;98634.53;;;30.20;41.79
64404;BME280;50726;54.912;-8.392;2022-12-18T14:39:37;98606.09;;;30.31;42.00
64404;BME280;50726;54.912;-8.392;2022-12-18T14:42:04;98584.09;;;30.79;41.60
64404;BME280;50726;54.912;-8.392;2022-12-18T14:44:35;98612.22;;;29.79;42.61
64404;BME280;50726;54.912;-8.392;2022-12-18T14:47:12;98608.09;;;29.56;42.90
64404;BME280;50726;54.912;-8.392;2022-12-18T14:49:44;98592.56;;;29.51;42.74
64404;BME280;50726;54.912;-8.392;2022-12-18T14:52:25;98588.31;;;30.02;43.10
64404;BME280;50726;54.912;-8.392;2022-12-18T14:54:58;98601.66;;;31.72;41.06
64404;BME280;50726;54.912;-8.392;2022-12-18T14:57:36;98597.72;;;29.39;43.42